Time;durP1;ratioP1;P1;durP2;ratioP2;P2;SDS_P1;SDS_P2;PMS_P1;PMS_P2;Temp;Humidity;BMP_temperature;BMP_pressure;BME280_temperature;BME280_humidity;BME280_pressure;Samples;Min_cycle;Max_cycle;Signal;HPM_P1;HPM_P2
2024/03/08 00:00:54;;;;;;;1999.90;999.90;;;;;;;;;;6123250;23;20028;-82
2024/03/08 00:03:21;;;;;;;1999.90;999.90;;;;;;;;;;6122977;23;20038;-82
2024/03/08 00:05:48;;;;;;;1999.90;999.90;;;;;;;;;;6123027;23;20026;-82
2024/03/08 00:08:15;;;;;;;1999.90;999.90;;;;;;;;;;6123581;23;20040;-82
2024/03/08 00:10:43;;;;;;;1999.90;999.90;;;;;;;;;;6122680;23;20022;-81
2024/03/08 00:13:09;;;;;;;1999.90;999.90;;;;;;;;;;6123039;23;20022;-82
2024/03/08 00:15:36;;;;;;;1999.90;999.90;;;;;;;;;;6123274;23;20587;-82
2024/03/08 00:18:02;;;;;;;1999.90;999.90;;;;;;;;;;6122913;23;20563;-82
2024/03/08 00:20:29;;;;;;;1999.90;999.90;;;;;;;;;;6122865;23;20030;-82
2024/03/08 00:22:57;;;;;;;1999.90;999.90;;;;;;;;;;6122786;23;20022;-82
2024/03/08 00:25:24;;;;;;;1999.90;999.90;;;;;;;;;;6122466;23;20079;-82
2024/03/08 00:27:55;;;;;;;1999.90;999.90;;;;;;;;;;6122232;23;20021;-82
2024/03/08 00:30:22;;;;;;;1999.90;999.90;;;;;;;;;;6122907;23;20123;-82
2024/03/08 00:32:49;;;;;;;1999.90;999.90;;;;;;;;;;6122558;23;20022;-83
2024/03/08 00:35:16;;;;;;;1999.90;999.90;;;;;;;;;;6122926;23;20029;-82
2024/03/08 00:37:42;;;;;;;1999.90;999.90;;;;;;;;;;6122619;23;20024;-83
2024/03/08 00:40:10;;;;;;;1999.90;999.90;;;;;;;;;;6122653;23;20076;-82
2024/03/08 00:42:38;;;;;;;1999.90;999.90;;;;;;;;;;6122675;23;20067;-82
2024/03/08 00:45:07;;;;;;;1999.90;999.90;;;;;;;;;;6122453;23;20026;-82
2024/03/08 00:47:34;;;;;;;1999.90;999.90;;;;;;;;;;6122699;23;20029;-83
2024/03/08 00:50:03;;;;;;;1999.90;999.90;;;;;;;;;;6122762;23;20049;-82
2024/03/08 00:52:30;;;;;;;1999.90;999.90;;;;;;;;;;6122487;23;20022;-82
2024/03/08 00:54:56;;;;;;;1999.90;999.90;;;;;;;;;;6122395;23;20341;-82
2024/03/08 00:57:23;;;;;;;1999.90;999.90;;;;;;;;;;6122332;23;20018;-82
2024/03/08 00:59:49;;;;;;;1999.90;999.90;;;;;;;;;;6121654;23;20017;-82
2024/03/08 01:02:18;;;;;;;1999.90;999.90;;;;;;;;;;6122526;23;20026;-82
2024/03/08 01:04:47;;;;;;;1999.90;999.90;;;;;;;;;;6122497;23;20319;-81
2024/03/08 01:07:13;;;;;;;1999.90;999.90;;;;;;;;;;6122434;23;20018;-82
2024/03/08 01:09:40;;;;;;;1999.90;999.90;;;;;;;;;;6122694;23;20096;-82
2024/03/08 01:12:07;;;;;;;1999.90;999.90;;;;;;;;;;6121924;23;20033;-81
2024/03/08 01:14:34;;;;;;;1999.90;999.90;;;;;;;;;;6120728;23;20032;-82
2024/03/08 01:17:00;;;;;;;1999.90;999.90;;;;;;;;;;6121914;23;20017;-84
2024/03/08 01:19:28;;;;;;;1999.90;999.90;;;;;;;;;;6121745;23;20488;-82
2024/03/08 01:21:56;;;;;;;1999.90;999.90;;;;;;;;;;6121524;23;20024;-82
2024/03/08 01:24:23;;;;;;;1999.90;999.90;;;;;;;;;;6122353;23;20345;-83
2024/03/08 01:26:49;;;;;;;1999.90;999.90;;;;;;;;;;6122660;23;20433;-81
2024/03/08 01:29:16;;;;;;;1999.90;999.90;;;;;;;;;;6120450;23;20033;-83
2024/03/08 01:31:42;;;;;;;1999.90;999.90;;;;;;;;;;6122467;23;20022;-82
2024/03/08 01:34:10;;;;;;;1999.90;999.90;;;;;;;;;;6121771;23;20022;-81
2024/03/08 01:36:38;;;;;;;1999.90;999.90;;;;;;;;;;6123314;23;20026;-82
2024/03/08 01:39:07;;;;;;;1999.90;999.90;;;;;;;;;;6128578;23;20026;-82
2024/03/08 01:41:35;;;;;;;1999.90;999.90;;;;;;;;;;6128217;23;20077;-83
2024/03/08 01:44:01;;;;;;;1999.90;999.90;;;;;;;;;;6126510;23;20026;-82
2024/03/08 01:46:28;;;;;;;1999.90;999.90;;;;;;;;;;6121992;23;20029;-82
2024/03/08 01:48:55;;;;;;;1999.90;999.90;;;;;;;;;;6122444;23;20028;-82
2024/03/08 01:51:21;;;;;;;1999.90;999.90;;;;;;;;;;6122733;23;20022;-81
2024/03/08 01:53:50;;;;;;;1999.90;999.90;;;;;;;;;;6122010;23;20488;-81
2024/03/08 01:56:18;;;;;;;1999.90;999.90;;;;;;;;;;6122241;23;20026;-82
2024/03/08 01:58:47;;;;;;;1999.90;999.90;;;;;;;;;;6122016;23;20026;-81
2024/03/08 02:01:14;;;;;;;1999.90;999.90;;;;;;;;;;6122719;23;20120;-81
2024/03/08 02:03:43;;;;;;;1999.90;999.90;;;;;;;;;;6123104;23;20061;-81
2024/03/08 02:06:10;;;;;;;1999.90;999.90;;;;;;;;;;6124803;23;20057;-81
2024/03/08 02:08:37;;;;;;;1999.90;999.90;;;;;;;;;;6124140;23;20026;-81
2024/03/08 02:11:06;;;;;;;1999.90;999.90;;;;;;;;;;6124600;23;20022;-81
2024/03/08 02:13:32;;;;;;;1999.90;999.90;;;;;;;;;;6124004;23;20026;-82
2024/03/08 02:16:00;;;;;;;1999.90;999.90;;;;;;;;;;6124510;23;20349;-82
2024/03/08 02:18:28;;;;;;;1999.90;999.90;;;;;;;;;;6123570;23;20022;-81
2024/03/08 02:20:56;;;;;;;1999.90;999.90;;;;;;;;;;6122024;23;20029;-81
2024/03/08 02:23:24;;;;;;;1999.90;999.90;;;;;;;;;;6122494;23;20101;-83
2024/03/08 02:25:51;;;;;;;1999.90;999.90;;;;;;;;;;6122459;23;20028;-82
2024/03/08 02:28:19;;;;;;;1999.90;999.90;;;;;;;;;;6122829;23;20432;-83
2024/03/08 02:30:46;;;;;;;1999.90;999.90;;;;;;;;;;6122231;23;20022;-81
2024/03/08 02:33:16;;;;;;;1999.90;999.90;;;;;;;;;;6123296;23;20077;-81
2024/03/08 02:35:45;;;;;;;1999.90;999.90;;;;;;;;;;6123360;23;20516;-82
2024/03/08 02:38:13;;;;;;;1999.90;999.90;;;;;;;;;;6124239;23;20026;-82
2024/03/08 02:40:40;;;;;;;1999.90;999.90;;;;;;;;;;6123464;23;20028;-82
2024/03/08 02:43:06;;;;;;;1999.90;999.90;;;;;;;;;;6123661;23;20022;-82
2024/03/08 02:45:33;;;;;;;1999.90;999.90;;;;;;;;;;6123246;23;20101;-82
2024/03/08 02:47:59;;;;;;;1999.90;999.90;;;;;;;;;;6123301;23;20029;-82
2024/03/08 02:50:27;;;;;;;1999.90;999.90;;;;;;;;;;6123555;23;20113;-81
2024/03/08 02:52:53;;;;;;;1999.90;999.90;;;;;;;;;;6123592;23;20026;-82
2024/03/08 02:55:21;;;;;;;1999.90;999.90;;;;;;;;;;6123229;23;20025;-81
2024/03/08 02:57:48;;;;;;;1999.90;999.90;;;;;;;;;;6123045;23;20390;-82
2024/03/08 03:00:15;;;;;;;1999.90;999.90;;;;;;;;;;6123028;23;20461;-81
2024/03/08 03:02:42;;;;;;;1999.90;999.90;;;;;;;;;;6123682;23;20033;-81
2024/03/08 03:05:09;;;;;;;1999.90;999.90;;;;;;;;;;6123690;23;20032;-82
2024/03/08 03:07:36;;;;;;;1999.90;999.90;;;;;;;;;;6123646;23;20133;-81
2024/03/08 03:10:03;;;;;;;1999.90;999.90;;;;;;;;;;6123357;23;20133;-81
2024/03/08 03:12:33;;;;;;;1999.90;999.90;;;;;;;;;;6123879;23;20021;-81
2024/03/08 03:15:00;;;;;;;1999.90;999.90;;;;;;;;;;6123529;23;20318;-82
2024/03/08 03:17:27;;;;;;;1999.90;999.90;;;;;;;;;;6123882;23;20104;-81
2024/03/08 03:19:53;;;;;;;1999.90;999.90;;;;;;;;;;6123299;23;20101;-82
2024/03/08 03:22:20;;;;;;;1999.90;999.90;;;;;;;;;;6123499;23;20017;-81
2024/03/08 03:24:47;;;;;;;1999.90;999.90;;;;;;;;;;6123291;23;20026;-81
2024/03/08 03:27:15;;;;;;;1999.90;999.90;;;;;;;;;;6123670;23;20022;-81
2024/03/08 03:29:46;;;;;;;1999.90;999.90;;;;;;;;;;6122975;23;20022;-81
2024/03/08 03:32:12;;;;;;;1999.90;999.90;;;;;;;;;;6122999;23;20516;-83
2024/03/08 03:34:39;;;;;;;1999.90;999.90;;;;;;;;;;6122890;23;20578;-81
2024/03/08 03:37:06;;;;;;;1999.90;999.90;;;;;;;;;;6123188;23;20018;-81
2024/03/08 03:39:34;;;;;;;1999.90;999.90;;;;;;;;;;6123309;23;20022;-82
2024/03/08 03:42:01;;;;;;;1999.90;999.90;;;;;;;;;;6123386;23;20104;-82
2024/03/08 03:44:28;;;;;;;1999.90;999.90;;;;;;;;;;6122723;23;20123;-81
2024/03/08 03:46:56;;;;;;;1999.90;999.90;;;;;;;;;;6122493;23;20445;-82
2024/03/08 03:49:23;;;;;;;1999.90;999.90;;;;;;;;;;6122715;23;20117;-81
2024/03/08 03:51:50;;;;;;;1999.90;999.90;;;;;;;;;;6122734;23;20347;-81
2024/03/08 03:54:16;;;;;;;1999.90;999.90;;;;;;;;;;6122554;23;20109;-82
2024/03/08 03:56:43;;;;;;;1999.90;999.90;;;;;;;;;;6123310;23;20022;-81
2024/03/08 03:59:09;;;;;;;1999.90;999.90;;;;;;;;;;6122605;23;20032;-81
2024/03/08 04:01:36;;;;;;;1999.90;999.90;;;;;;;;;;6123211;23;20202;-81
2024/03/08 04:04:05;;;;;;;1999.90;999.90;;;;;;;;;;6122766;23;20112;-82
2024/03/08 04:06:31;;;;;;;1999.90;999.90;;;;;;;;;;6122973;23;20056;-81
2024/03/08 04:08:58;;;;;;;1999.90;999.90;;;;;;;;;;6122879;23;20353;-81
2024/03/08 04:11:24;;;;;;;1999.90;999.90;;;;;;;;;;6122898;23;20030;-81
2024/03/08 04:13:52;;;;;;;1999.90;999.90;;;;;;;;;;6122680;23;20524;-80
2024/03/08 04:16:19;;;;;;;1999.90;999.90;;;;;;;;;;6122732;23;20022;-81
2024/03/08 04:18:45;;;;;;;1999.90;999.90;;;;;;;;;;6123065;23;20028;-81
2024/03/08 04:21:13;;;;;;;1999.90;999.90;;;;;;;;;;6122667;23;20032;-81
2024/03/08 04:23:40;;;;;;;1999.90;999.90;;;;;;;;;;6122475;23;20022;-82
2024/03/08 04:26:08;;;;;;;1999.90;999.90;;;;;;;;;;6122438;23;20105;-81
2024/03/08 04:28:35;;;;;;;1999.90;999.90;;;;;;;;;;6122266;23;20449;-81
2024/03/08 04:31:04;;;;;;;1999.90;999.90;;;;;;;;;;6122012;23;20022;-82
2024/03/08 04:33:30;;;;;;;1999.90;999.90;;;;;;;;;;6122646;23;20018;-81
2024/03/08 04:35:57;;;;;;;1999.90;999.90;;;;;;;;;;6122129;23;20026;-83
2024/03/08 04:38:25;;;;;;;1999.90;999.90;;;;;;;;;;6122375;23;20018;-82
2024/03/08 04:40:52;;;;;;;1999.90;999.90;;;;;;;;;;6122242;23;20018;-82
2024/03/08 04:43:20;;;;;;;1999.90;999.90;;;;;;;;;;6122316;23;20021;-81
2024/03/08 04:45:48;;;;;;;1999.90;999.90;;;;;;;;;;6122176;23;20033;-82
2024/03/08 04:48:15;;;;;;;1999.90;999.90;;;;;;;;;;6122082;23;20022;-82
2024/03/08 04:50:42;;;;;;;1999.90;999.90;;;;;;;;;;6122177;23;20101;-81
2024/03/08 04:53:08;;;;;;;1999.90;999.90;;;;;;;;;;6121889;23;20401;-81
2024/03/08 04:55:37;;;;;;;1999.90;999.90;;;;;;;;;;6121609;23;20421;-81
2024/03/08 04:58:05;;;;;;;1999.90;999.90;;;;;;;;;;6122207;23;20018;-81
2024/03/08 05:00:32;;;;;;;1999.90;999.90;;;;;;;;;;6121900;23;20445;-82
2024/03/08 05:02:58;;;;;;;1999.90;999.90;;;;;;;;;;6121732;23;20036;-82
2024/03/08 05:05:28;;;;;;;1999.90;999.90;;;;;;;;;;6121638;23;20029;-81
2024/03/08 05:07:54;;;;;;;1999.90;999.90;;;;;;;;;;6121233;23;20022;-81
2024/03/08 05:10:21;;;;;;;1999.90;999.90;;;;;;;;;;6121236;23;20021;-82
2024/03/08 05:12:49;;;;;;;1999.90;999.90;;;;;;;;;;6121713;23;20056;-83
2024/03/08 05:15:16;;;;;;;1999.90;999.90;;;;;;;;;;6121774;23;20021;-81
2024/03/08 05:17:42;;;;;;;1999.90;999.90;;;;;;;;;;6121852;23;20465;-81
2024/03/08 05:20:12;;;;;;;1999.90;999.90;;;;;;;;;;6121290;23;20104;-82
2024/03/08 05:22:40;;;;;;;1999.90;999.90;;;;;;;;;;6121747;23;20639;-82
2024/03/08 05:25:08;;;;;;;1999.90;999.90;;;;;;;;;;6121871;23;20048;-82
2024/03/08 05:27:34;;;;;;;1999.90;999.90;;;;;;;;;;6121986;23;20095;-82
2024/03/08 05:30:03;;;;;;;1999.90;999.90;;;;;;;;;;6121778;23;20018;-81
2024/03/08 05:32:30;;;;;;;1999.90;999.90;;;;;;;;;;6121744;23;20465;-83
2024/03/08 05:34:57;;;;;;;1999.90;999.90;;;;;;;;;;6121786;23;20276;-81
2024/03/08 05:37:23;;;;;;;1999.90;999.90;;;;;;;;;;6122173;23;20018;-82
2024/03/08 05:39:49;;;;;;;1999.90;999.90;;;;;;;;;;6121967;23;20022;-82
2024/03/08 05:42:15;;;;;;;1999.90;999.90;;;;;;;;;;6122027;23;20126;-81
2024/03/08 05:44:42;;;;;;;1999.90;999.90;;;;;;;;;;6121786;23;20032;-82
2024/03/08 05:47:10;;;;;;;1999.90;999.90;;;;;;;;;;6121786;23;20102;-82
2024/03/08 05:49:37;;;;;;;1999.90;999.90;;;;;;;;;;6122320;23;20018;-81
2024/03/08 05:52:04;;;;;;;1999.90;999.90;;;;;;;;;;6121646;23;20476;-82
2024/03/08 05:54:33;;;;;;;1999.90;999.90;;;;;;;;;;6122029;23;20018;-82
2024/03/08 05:56:59;;;;;;;1999.90;999.90;;;;;;;;;;6121830;23;20022;-82
2024/03/08 05:59:26;;;;;;;1999.90;999.90;;;;;;;;;;6121233;23;20449;-81
2024/03/08 06:01:53;;;;;;;1999.90;999.90;;;;;;;;;;6121152;23;20049;-81
2024/03/08 06:04:21;;;;;;;1999.90;999.90;;;;;;;;;;6121493;23;20022;-82
2024/03/08 06:06:47;;;;;;;1999.90;999.90;;;;;;;;;;6121559;23;20030;-81
2024/03/08 06:09:17;;;;;;;1999.90;999.90;;;;;;;;;;6123194;23;20022;-82
2024/03/08 06:11:44;;;;;;;1999.90;999.90;;;;;;;;;;6123806;23;20028;-80
2024/03/08 06:14:10;;;;;;;1999.90;999.90;;;;;;;;;;6123610;23;20349;-80
2024/03/08 06:16:38;;;;;;;1999.90;999.90;;;;;;;;;;6123715;23;20191;-81
2024/03/08 06:19:05;;;;;;;1999.90;999.90;;;;;;;;;;6123641;23;20022;-80
2024/03/08 06:21:33;;;;;;;1999.90;999.90;;;;;;;;;;6123687;23;20022;-82
2024/03/08 06:24:00;;;;;;;1999.90;999.90;;;;;;;;;;6123302;23;20108;-82
2024/03/08 06:26:28;;;;;;;1999.90;999.90;;;;;;;;;;6123500;23;20026;-80
2024/03/08 06:28:54;;;;;;;1999.90;999.90;;;;;;;;;;6123459;23;20022;-81
2024/03/08 06:31:21;;;;;;;1999.90;999.90;;;;;;;;;;6123308;23;20028;-82
2024/03/08 06:33:49;;;;;;;1999.90;999.90;;;;;;;;;;6122920;23;20022;-80
2024/03/08 06:36:18;;;;;;;1999.90;999.90;;;;;;;;;;6123351;23;20101;-81
2024/03/08 06:38:46;;;;;;;1999.90;999.90;;;;;;;;;;6123391;23;20026;-81
2024/03/08 06:41:15;;;;;;;1999.90;999.90;;;;;;;;;;6123236;23;20064;-80
2024/03/08 06:43:42;;;;;;;1999.90;999.90;;;;;;;;;;6122931;23;20424;-80
2024/03/08 06:46:08;;;;;;;1999.90;999.90;;;;;;;;;;6122945;23;20028;-81
2024/03/08 06:48:35;;;;;;;1999.90;999.90;;;;;;;;;;6123736;23;20044;-81
2024/03/08 06:51:01;;;;;;;1999.90;999.90;;;;;;;;;;6123089;23;20025;-82
2024/03/08 06:53:28;;;;;;;1999.90;999.90;;;;;;;;;;6122830;23;20348;-83
2024/03/08 06:55:56;;;;;;;1999.90;999.90;;;;;;;;;;6123007;23;20026;-82
2024/03/08 06:58:22;;;;;;;1999.90;999.90;;;;;;;;;;6123599;23;20021;-82
2024/03/08 07:00:51;;;;;;;1999.90;999.90;;;;;;;;;;6123221;23;20022;-82
2024/03/08 07:03:18;;;;;;;1999.90;999.90;;;;;;;;;;6122992;23;20022;-82
2024/03/08 07:05:45;;;;;;;1999.90;999.90;;;;;;;;;;6123273;23;20022;-83
2024/03/08 07:08:13;;;;;;;1999.90;999.90;;;;;;;;;;6123197;23;20021;-82
2024/03/08 07:10:41;;;;;;;1999.90;999.90;;;;;;;;;;6122520;23;20026;-82
2024/03/08 07:13:09;;;;;;;1999.90;999.90;;;;;;;;;;6123095;23;20018;-83
2024/03/08 07:15:36;;;;;;;1999.90;999.90;;;;;;;;;;6122925;23;20382;-83
2024/03/08 07:18:03;;;;;;;1999.90;999.90;;;;;;;;;;6122878;23;20018;-85
2024/03/08 07:20:30;;;;;;;1999.90;999.90;;;;;;;;;;6122388;23;20105;-82
2024/03/08 07:22:57;;;;;;;1999.90;999.90;;;;;;;;;;6122945;23;20416;-83
2024/03/08 07:25:24;;;;;;;1999.90;999.90;;;;;;;;;;6122990;23;20101;-83
2024/03/08 07:27:52;;;;;;;1999.90;999.90;;;;;;;;;;6122752;23;20026;-83
2024/03/08 07:33:06;;;;;;;1999.90;999.90;;;;;;;;;;6122565;23;20124;-83
2024/03/08 07:35:33;;;;;;;1999.90;999.90;;;;;;;;;;6122128;23;20026;-83
2024/03/08 07:38:02;;;;;;;1999.90;999.90;;;;;;;;;;6123056;23;20022;-83
2024/03/08 07:40:28;;;;;;;1999.90;999.90;;;;;;;;;;6122927;23;20101;-82
2024/03/08 07:42:55;;;;;;;1999.90;999.90;;;;;;;;;;6122977;23;20093;-85
2024/03/08 07:45:23;;;;;;;1999.90;999.90;;;;;;;;;;6122726;23;20036;-82
2024/03/08 07:47:50;;;;;;;1999.90;999.90;;;;;;;;;;6122407;23;20030;-83
2024/03/08 07:50:17;;;;;;;1999.90;999.90;;;;;;;;;;6122561;23;20025;-83
2024/03/08 07:52:43;;;;;;;1999.90;999.90;;;;;;;;;;6124743;23;20024;-82
2024/03/08 07:55:11;;;;;;;1999.90;999.90;;;;;;;;;;6121955;23;20480;-82
2024/03/08 07:57:38;;;;;;;1999.90;999.90;;;;;;;;;;6122395;23;20029;-83
2024/03/08 08:00:08;;;;;;;1999.90;999.90;;;;;;;;;;6122252;23;20337;-82
2024/03/08 08:02:36;;;;;;;1999.90;999.90;;;;;;;;;;6121996;23;20092;-81
2024/03/08 08:05:04;;;;;;;1999.90;999.90;;;;;;;;;;6122282;23;20029;-83
2024/03/08 08:07:30;;;;;;;1999.90;999.90;;;;;;;;;;6121816;23;20030;-81
2024/03/08 08:09:57;;;;;;;1999.90;999.90;;;;;;;;;;6121493;23;20032;-82
2024/03/08 08:12:24;;;;;;;1999.90;999.90;;;;;;;;;;6121560;23;20468;-82
2024/03/08 08:14:50;;;;;;;1999.90;999.90;;;;;;;;;;6122315;23;20028;-82
2024/03/08 08:17:17;;;;;;;1999.90;999.90;;;;;;;;;;6121230;23;20026;-82
2024/03/08 08:19:44;;;;;;;1999.90;999.90;;;;;;;;;;6120775;23;20471;-83
2024/03/08 08:22:11;;;;;;;1999.90;999.90;;;;;;;;;;6122062;23;20029;-82
2024/03/08 08:24:37;;;;;;;1999.90;999.90;;;;;;;;;;6122288;23;20025;-82
2024/03/08 08:27:04;;;;;;;1999.90;999.90;;;;;;;;;;6121695;23;20032;-83
2024/03/08 08:29:33;;;;;;;1999.90;999.90;;;;;;;;;;6121841;23;20030;-82
2024/03/08 08:31:59;;;;;;;1999.90;999.90;;;;;;;;;;6121610;23;20029;-82
2024/03/08 08:34:26;;;;;;;1999.90;999.90;;;;;;;;;;6122135;23;20026;-84
2024/03/08 08:36:54;;;;;;;1999.90;999.90;;;;;;;;;;6121970;23;20080;-81
2024/03/08 08:39:22;;;;;;;1999.90;999.90;;;;;;;;;;6122695;23;20058;-82
2024/03/08 08:41:49;;;;;;;1999.90;999.90;;;;;;;;;;6121952;23;20358;-82
2024/03/08 08:44:16;;;;;;;1999.90;999.90;;;;;;;;;;6122362;23;20096;-82
2024/03/08 08:46:42;;;;;;;1999.90;999.90;;;;;;;;;;6122350;23;20032;-82
2024/03/08 08:49:10;;;;;;;1999.90;999.90;;;;;;;;;;6121557;23;20461;-82
2024/03/08 08:51:37;;;;;;;1999.90;999.90;;;;;;;;;;6122164;23;20026;-81
2024/03/08 08:54:06;;;;;;;1999.90;999.90;;;;;;;;;;6121653;23;20022;-84
2024/03/08 08:56:33;;;;;;;1999.90;999.90;;;;;;;;;;6122052;23;20022;-82
2024/03/08 08:58:59;;;;;;;1999.90;999.90;;;;;;;;;;6122014;23;20018;-82
2024/03/08 09:01:27;;;;;;;1999.90;999.90;;;;;;;;;;6122144;23;20097;-81
2024/03/08 09:03:53;;;;;;;1999.90;999.90;;;;;;;;;;6122241;23;20021;-82
2024/03/08 09:06:20;;;;;;;1999.90;999.90;;;;;;;;;;6122236;23;20022;-81
2024/03/08 09:08:46;;;;;;;1999.90;999.90;;;;;;;;;;6121646;23;20026;-82
2024/03/08 09:11:15;;;;;;;1999.90;999.90;;;;;;;;;;6122311;23;20028;-82
2024/03/08 09:13:41;;;;;;;1999.90;999.90;;;;;;;;;;6121691;23;20421;-81
2024/03/08 09:16:10;;;;;;;1999.90;999.90;;;;;;;;;;6122086;23;20078;-82
2024/03/08 09:18:37;;;;;;;1999.90;999.90;;;;;;;;;;6121580;23;20475;-83
2024/03/08 09:21:04;;;;;;;1999.90;999.90;;;;;;;;;;6121913;23;20029;-82
2024/03/08 09:23:31;;;;;;;1999.90;999.90;;;;;;;;;;6121455;23;20457;-82
2024/03/08 09:25:58;;;;;;;1999.90;999.90;;;;;;;;;;6121939;23;20093;-84
2024/03/08 09:28:27;;;;;;;1999.90;999.90;;;;;;;;;;6121702;23;20084;-83
2024/03/08 09:30:54;;;;;;;1999.90;999.90;;;;;;;;;;6121391;23;20073;-82
2024/03/08 09:33:21;;;;;;;1999.90;999.90;;;;;;;;;;6121571;23;20022;-83
2024/03/08 09:35:49;;;;;;;1999.90;999.90;;;;;;;;;;6121611;23;20022;-83
2024/03/08 09:38:15;;;;;;;1999.90;999.90;;;;;;;;;;6121495;23;20018;-82
2024/03/08 09:40:42;;;;;;;1999.90;999.90;;;;;;;;;;6121741;23;20029;-83
2024/03/08 09:43:11;;;;;;;1999.90;999.90;;;;;;;;;;6121757;23;20022;-82
2024/03/08 09:45:41;;;;;;;1999.90;999.90;;;;;;;;;;6121568;23;20533;-81
2024/03/08 09:48:12;;;;;;;1999.90;999.90;;;;;;;;;;6121732;23;20089;-83
2024/03/08 09:50:41;;;;;;;1999.90;999.90;;;;;;;;;;6121905;23;20026;-82
2024/03/08 09:53:08;;;;;;;1999.90;999.90;;;;;;;;;;6121888;23;20436;-82
2024/03/08 09:55:36;;;;;;;1999.90;999.90;;;;;;;;;;6121718;23;20081;-82
2024/03/08 09:58:30;;;;;;;1999.90;999.90;;;;;;;;;;6121748;23;20242;-82
2024/03/08 10:00:58;;;;;;;1999.90;999.90;;;;;;;;;;6121455;23;20117;-82
2024/03/08 10:03:25;;;;;;;1999.90;999.90;;;;;;;;;;6120933;23;20345;-83
2024/03/08 10:05:53;;;;;;;1999.90;999.90;;;;;;;;;;6121447;23;20105;-82
2024/03/08 10:08:20;;;;;;;1999.90;999.90;;;;;;;;;;6121513;23;20081;-82
2024/03/08 10:10:46;;;;;;;1999.90;999.90;;;;;;;;;;6121364;23;20022;-83
2024/03/08 10:13:16;;;;;;;1999.90;999.90;;;;;;;;;;6121668;23;20330;-82
2024/03/08 10:15:43;;;;;;;1999.90;999.90;;;;;;;;;;6121419;23;20055;-83
2024/03/08 10:18:11;;;;;;;1999.90;999.90;;;;;;;;;;6121348;23;20061;-85
2024/03/08 10:20:38;;;;;;;1999.90;999.90;;;;;;;;;;6121671;23;20024;-82
2024/03/08 10:23:05;;;;;;;1999.90;999.90;;;;;;;;;;6121940;23;20053;-82
2024/03/08 10:25:32;;;;;;;1999.90;999.90;;;;;;;;;;6121124;23;20026;-80
2024/03/08 10:27:58;;;;;;;1999.90;999.90;;;;;;;;;;6121428;23;20024;-80
2024/03/08 10:30:25;;;;;;;1999.90;999.90;;;;;;;;;;6121344;23;20018;-82
2024/03/08 10:32:51;;;;;;;1999.90;999.90;;;;;;;;;;6121434;23;20026;-83
2024/03/08 10:35:20;;;;;;;1999.90;999.90;;;;;;;;;;6121612;23;20024;-81
2024/03/08 10:37:49;;;;;;;1999.90;999.90;;;;;;;;;;6121809;23;20022;-83
2024/03/08 10:40:18;;;;;;;1999.90;999.90;;;;;;;;;;6121310;23;20022;-85
2024/03/08 10:42:52;;;;;;;1999.90;999.90;;;;;;;;;;6121260;23;20096;-83
2024/03/08 10:45:33;;;;;;;1999.90;999.90;;;;;;;;;;6121041;23;20441;-82
2024/03/08 10:48:11;;;;;;;1999.90;999.90;;;;;;;;;;6121441;23;20026;-83
2024/03/08 10:50:39;;;;;;;1999.90;999.90;;;;;;;;;;6121643;23;20029;-83
2024/03/08 10:53:07;;;;;;;1999.90;999.90;;;;;;;;;;6121618;23;20018;-83
2024/03/08 10:55:34;;;;;;;1999.90;999.90;;;;;;;;;;6122857;23;20109;-82
2024/03/08 10:58:01;;;;;;;1999.90;999.90;;;;;;;;;;6123467;23;20469;-83
2024/03/08 11:00:28;;;;;;;1999.90;999.90;;;;;;;;;;6123226;23;20112;-79
2024/03/08 11:02:55;;;;;;;1999.90;999.90;;;;;;;;;;6123104;23;20022;-81
2024/03/08 11:05:35;;;;;;;1999.90;999.90;;;;;;;;;;6122955;23;20096;-83
2024/03/08 11:08:04;;;;;;;1999.90;999.90;;;;;;;;;;6122710;23;20400;-82
2024/03/08 11:10:31;;;;;;;1999.90;999.90;;;;;;;;;;6123432;23;20030;-83
2024/03/08 11:12:58;;;;;;;1999.90;999.90;;;;;;;;;;6123136;23;20022;-83
2024/03/08 11:15:25;;;;;;;1999.90;999.90;;;;;;;;;;6122998;23;20022;-82
2024/03/08 11:17:55;;;;;;;1999.90;999.90;;;;;;;;;;6122076;23;20086;-83
2024/03/08 11:20:21;;;;;;;1999.90;999.90;;;;;;;;;;6122522;23;20041;-85
2024/03/08 11:22:50;;;;;;;1999.90;999.90;;;;;;;;;;6123004;23;20057;-83
2024/03/08 11:25:40;;;;;;;1999.90;999.90;;;;;;;;;;6122315;23;20072;-83
2024/03/08 11:28:09;;;;;;;1999.90;999.90;;;;;;;;;;6122581;23;20468;-83
2024/03/08 11:30:38;;;;;;;1999.90;999.90;;;;;;;;;;6122713;23;20101;-82
2024/03/08 11:33:05;;;;;;;1999.90;999.90;;;;;;;;;;6122825;23;20018;-83
2024/03/08 11:35:31;;;;;;;1999.90;999.90;;;;;;;;;;6122624;23;20049;-84
2024/03/08 11:38:00;;;;;;;1999.90;999.90;;;;;;;;;;6122113;23;20021;-80
2024/03/08 11:40:27;;;;;;;1999.90;999.90;;;;;;;;;;6122424;23;20053;-83
2024/03/08 11:42:55;;;;;;;1999.90;999.90;;;;;;;;;;6122165;23;20093;-83
2024/03/08 11:45:22;;;;;;;1999.90;999.90;;;;;;;;;;6122312;23;20034;-83
2024/03/08 11:47:48;;;;;;;1999.90;999.90;;;;;;;;;;6122561;23;20108;-83
2024/03/08 11:50:15;;;;;;;1999.90;999.90;;;;;;;;;;6122112;23;20025;-84
2024/03/08 11:52:43;;;;;;;1999.90;999.90;;;;;;;;;;6122461;23;20034;-85
2024/03/08 11:55:10;;;;;;;1999.90;999.90;;;;;;;;;;6122651;23;20018;-85
2024/03/08 11:57:37;;;;;;;1999.90;999.90;;;;;;;;;;6121683;23;20048;-84
2024/03/08 12:00:07;;;;;;;1999.90;999.90;;;;;;;;;;6122297;23;20340;-82
2024/03/08 12:02:35;;;;;;;1999.90;999.90;;;;;;;;;;6122238;23;20101;-82
2024/03/08 12:05:03;;;;;;;1999.90;999.90;;;;;;;;;;6122058;23;20061;-82
2024/03/08 12:07:32;;;;;;;1999.90;999.90;;;;;;;;;;6122308;23;20108;-82
2024/03/08 12:10:18;;;;;;;1999.90;999.90;;;;;;;;;;6121923;23;20045;-84
2024/03/08 12:12:45;;;;;;;;;;;;;;;;;;6123222;23;20329;-83
2024/03/08 12:15:12;;;;;;;;;;;;;;;;;;6122376;23;19921;-86
2024/03/08 12:17:39;;;;;;;1999.90;999.90;;;;;;;;;;6122197;23;19916;-84
2024/03/08 12:20:14;;;;;;;1999.90;999.90;;;;;;;;;;6121679;23;20026;-81
2024/03/08 12:22:42;;;;;;;1999.90;999.90;;;;;;;;;;6121922;23;20072;-81
2024/03/08 12:25:11;;;;;;;1999.90;999.90;;;;;;;;;;6122299;23;20025;-83
2024/03/08 12:27:39;;;;;;;1999.90;999.90;;;;;;;;;;6122510;23;20460;-83
2024/03/08 12:30:23;;;;;;;1999.90;999.90;;;;;;;;;;6122274;23;20342;-84
2024/03/08 12:32:53;;;;;;;1999.90;999.90;;;;;;;;;;6121740;23;20018;-84
2024/03/08 12:35:22;;;;;;;1999.90;999.90;;;;;;;;;;6121945;23;20022;-82
2024/03/08 12:37:51;;;;;;;1999.90;999.90;;;;;;;;;;6120643;23;20316;-82
2024/03/08 12:40:18;;;;;;;1999.90;999.90;;;;;;;;;;6120725;23;20026;-82
2024/03/08 12:42:47;;;;;;;1999.90;999.90;;;;;;;;;;6121163;23;20018;-82
2024/03/08 12:45:14;;;;;;;1999.90;999.90;;;;;;;;;;6120623;23;20026;-81
2024/03/08 12:47:42;;;;;;;1999.90;999.90;;;;;;;;;;6120636;23;20104;-81
2024/03/08 12:50:10;;;;;;;1999.90;999.90;;;;;;;;;;6121206;23;20394;-81
2024/03/08 12:52:37;;;;;;;1999.90;999.90;;;;;;;;;;6121289;23;20025;-83
2024/03/08 12:55:06;;;;;;;1999.90;999.90;;;;;;;;;;6122183;23;20021;-83
2024/03/08 12:57:34;;;;;;;1999.90;999.90;;;;;;;;;;6121503;23;20508;-83
2024/03/08 13:00:02;;;;;;;1999.90;999.90;;;;;;;;;;6122076;23;20030;-83
2024/03/08 13:02:30;;;;;;;1999.90;999.90;;;;;;;;;;6122173;23;20103;-81
2024/03/08 13:04:58;;;;;;;1999.90;999.90;;;;;;;;;;6121982;23;20061;-82
2024/03/08 13:07:26;;;;;;;1999.90;999.90;;;;;;;;;;6122067;23;20108;-80
2024/03/08 13:09:53;;;;;;;1999.90;999.90;;;;;;;;;;6121321;23;20461;-81
2024/03/08 13:12:20;;;;;;;1999.90;999.90;;;;;;;;;;6121240;23;20026;-83
2024/03/08 13:14:47;;;;;;;1999.90;999.90;;;;;;;;;;6121639;23;20029;-83
2024/03/08 13:17:13;;;;;;;1999.90;999.90;;;;;;;;;;6121518;23;20021;-83
2024/03/08 13:19:41;;;;;;;1999.90;999.90;;;;;;;;;;6121898;23;20307;-84
2024/03/08 13:22:12;;;;;;;1999.90;999.90;;;;;;;;;;6121979;23;20029;-83
2024/03/08 13:24:40;;;;;;;1999.90;999.90;;;;;;;;;;6121911;23;20303;-83
2024/03/08 13:27:19;;;;;;;1999.90;999.90;;;;;;;;;;6121951;23;20030;-83
2024/03/08 13:29:46;;;;;;;1999.90;999.90;;;;;;;;;;6121783;23;20025;-83
2024/03/08 13:32:13;;;;;;;1999.90;999.90;;;;;;;;;;6121739;23;20113;-83
2024/03/08 13:34:42;;;;;;;1999.90;999.90;;;;;;;;;;6121787;23;20025;-81
2024/03/08 13:37:11;;;;;;;1999.90;999.90;;;;;;;;;;6121321;23;20449;-81
2024/03/08 13:39:43;;;;;;;1999.90;999.90;;;;;;;;;;6122001;23;20349;-80
2024/03/08 13:42:12;;;;;;;1999.90;999.90;;;;;;;;;;6121244;23;20508;-83
2024/03/08 13:44:40;;;;;;;1999.90;999.90;;;;;;;;;;6121637;23;20033;-81
2024/03/08 13:47:07;;;;;;;1999.90;999.90;;;;;;;;;;6121525;23;20026;-81